createdAt,value
2023-02-04T00:00:37.939Z,7.20
2023-02-04T00:03:06.951Z,7.30
2023-02-04T00:05:37.197Z,7.20
2023-02-04T00:08:05.829Z,7.30
2023-02-04T00:10:34.597Z,7.30
2023-02-04T00:13:03.072Z,7.30
2023-02-04T00:15:32.867Z,7.30
2023-02-04T00:18:00.963Z,7.30
2023-02-04T00:20:30.003Z,7.30
2023-02-04T00:23:00.135Z,7.30
2023-02-04T00:25:28.712Z,7.30
2023-02-04T00:27:57.647Z,7.30
2023-02-04T00:30:26.413Z,7.30
2023-02-04T00:32:56.605Z,7.30
2023-02-04T00:35:26.221Z,7.30
2023-02-04T00:37:55.519Z,7.30
2023-02-04T00:40:25.111Z,7.30
2023-02-04T00:42:53.607Z,7.40
2023-02-04T00:45:22.519Z,7.40
2023-02-04T00:47:50.823Z,7.40
2023-02-04T00:50:20.510Z,7.40
2023-02-04T00:52:48.650Z,7.40
2023-02-04T00:55:18.239Z,7.40
2023-02-04T00:57:48.114Z,7.40
2023-02-04T01:00:19.135Z,7.40
2023-02-04T01:02:47.369Z,7.30
2023-02-04T01:05:15.621Z,7.30
2023-02-04T01:07:46.589Z,7.40
2023-02-04T01:10:16.214Z,7.40
2023-02-04T01:12:46.015Z,7.30
2023-02-04T01:15:15.886Z,7.30
2023-02-04T01:17:44.443Z,7.30
2023-02-04T01:20:13.880Z,7.90
2023-02-04T01:22:42.182Z,7.30
2023-02-04T01:25:11.112Z,7.30
2023-02-04T01:27:43.563Z,7.30
2023-02-04T01:30:13.834Z,7.30
2023-02-04T01:32:43.940Z,7.40
2023-02-04T01:35:12.217Z,7.40
2023-02-04T01:37:41.154Z,7.40
2023-02-04T01:40:12.393Z,7.30
2023-02-04T01:42:42.047Z,7.30
2023-02-04T01:45:11.314Z,7.30
2023-02-04T01:47:41.466Z,7.40
2023-02-04T01:50:14.495Z,7.40
2023-02-04T01:52:46.928Z,7.30
2023-02-04T01:55:18.811Z,7.40
2023-02-04T01:57:48.796Z,7.80
2023-02-04T02:00:23.736Z,7.40
2023-02-04T02:02:55.102Z,7.40
2023-02-04T02:05:30.181Z,7.40
2023-02-04T02:08:03.013Z,7.40
2023-02-04T02:10:32.409Z,7.40
2023-02-04T02:13:01.151Z,7.40
2023-02-04T02:15:32.104Z,7.40
2023-02-04T02:18:01.350Z,7.40
2023-02-04T02:20:32.389Z,7.40
2023-02-04T02:23:12.400Z,7.40
2023-02-04T02:25:42.579Z,7.40
2023-02-04T02:28:16.172Z,7.40
2023-02-04T02:30:47.002Z,7.40
2023-02-04T02:33:17.698Z,7.40
2023-02-04T02:35:49.074Z,7.40
2023-02-04T02:38:19.325Z,7.40
2023-02-04T02:40:51.115Z,7.50
2023-02-04T02:43:25.479Z,7.50
2023-02-04T02:45:56.156Z,7.90
2023-02-04T02:48:25.111Z,7.50
2023-02-04T02:50:54.588Z,7.50
2023-02-04T02:53:23.636Z,7.50
2023-02-04T02:55:53.675Z,7.50
2023-02-04T02:58:29.601Z,7.50
2023-02-04T03:00:59.180Z,7.50
2023-02-04T03:03:31.656Z,7.60
2023-02-04T03:06:08.063Z,7.50
2023-02-04T03:08:37.914Z,7.50
2023-02-04T03:11:08.048Z,7.50
2023-02-04T03:13:37.067Z,7.50
2023-02-04T03:16:08.141Z,7.50
2023-02-04T03:18:37.717Z,7.50
2023-02-04T03:21:07.755Z,7.50
2023-02-04T03:23:38.894Z,7.50
2023-02-04T03:26:08.976Z,7.50
2023-02-04T03:28:41.825Z,7.50
2023-02-04T03:31:11.583Z,7.40
2023-02-04T03:33:39.798Z,7.40
2023-02-04T03:36:09.685Z,7.40
2023-02-04T03:38:37.884Z,7.40
2023-02-04T03:41:07.847Z,7.40
2023-02-04T03:43:36.279Z,7.40
2023-02-04T03:46:04.518Z,7.40
2023-02-04T03:48:32.886Z,7.60
2023-02-04T03:51:01.256Z,7.30
2023-02-04T03:53:29.717Z,7.50
2023-02-04T03:55:58.213Z,7.40
2023-02-04T03:58:27.775Z,7.40
2023-02-04T04:00:55.938Z,7.40
2023-02-04T04:03:24.179Z,7.40
2023-02-04T04:05:52.385Z,7.50
2023-02-04T04:08:20.492Z,7.50
2023-02-04T04:10:48.946Z,7.50
2023-02-04T04:13:17.592Z,7.50
2023-02-04T04:15:47.010Z,7.50
2023-02-04T04:18:15.481Z,7.50
2023-02-04T04:20:44.053Z,7.50
2023-02-04T04:23:12.319Z,7.50
2023-02-04T04:25:40.555Z,7.40
2023-02-04T04:28:08.808Z,7.50
2023-02-04T04:30:37.052Z,7.50
2023-02-04T04:33:06.693Z,7.50
2023-02-04T04:35:35.579Z,7.40
2023-02-04T04:38:04.413Z,7.40
2023-02-04T04:40:32.884Z,7.40
2023-02-04T04:43:01.604Z,7.40
2023-02-04T04:45:29.865Z,7.30
2023-02-04T04:47:58.816Z,7.30
2023-02-04T04:50:28.459Z,7.20
2023-02-04T04:52:57.165Z,7.20
2023-02-04T04:55:25.516Z,7.20
2023-02-04T04:57:54.021Z,7.20
2023-02-04T05:00:23.444Z,7.20
2023-02-04T05:02:52.601Z,7.20
2023-02-04T05:05:20.829Z,7.20
2023-02-04T05:07:51.063Z,7.10
2023-02-04T05:10:20.157Z,7.00
2023-02-04T05:12:49.086Z,7.00
2023-02-04T05:15:17.554Z,7.00
2023-02-04T05:17:46.319Z,6.90
2023-02-04T05:20:14.648Z,6.90
2023-02-04T05:22:42.822Z,6.90
2023-02-04T05:25:12.980Z,6.90
2023-02-04T05:27:41.237Z,6.90
2023-02-04T05:30:13.455Z,6.90
2023-02-04T05:32:42.313Z,6.90
2023-02-04T05:35:10.770Z,6.90
2023-02-04T05:37:39.488Z,6.90
2023-02-04T05:40:09.132Z,7.00
2023-02-04T05:42:38.991Z,6.90
2023-02-04T05:45:08.885Z,6.80
2023-02-04T05:47:37.580Z,6.80
2023-02-04T05:50:07.719Z,6.70
2023-02-04T05:52:35.878Z,6.70
2023-02-04T05:55:04.854Z,6.70
2023-02-04T05:57:33.167Z,6.70
2023-02-04T06:00:02.933Z,6.70
2023-02-04T06:02:40.343Z,6.70
2023-02-04T06:05:09.535Z,6.60
2023-02-04T06:07:37.717Z,6.70
2023-02-04T06:10:06.690Z,6.80
2023-02-04T06:12:34.857Z,6.80
2023-02-04T06:15:05.798Z,6.90
2023-02-04T06:17:34.012Z,6.90
2023-02-04T06:20:02.955Z,6.90
2023-02-04T06:22:31.076Z,6.90
2023-02-04T06:25:00.192Z,6.90
2023-02-04T06:27:28.375Z,6.80
2023-02-04T06:29:57.358Z,6.80
2023-02-04T06:32:26.906Z,6.80
2023-02-04T06:34:55.575Z,6.70
2023-02-04T06:37:24.472Z,6.80
2023-02-04T06:39:55.020Z,6.70
2023-02-04T06:42:23.756Z,6.70
2023-02-04T06:44:52.356Z,6.70
2023-02-04T06:47:20.959Z,6.70
2023-02-04T06:49:50.560Z,6.70
2023-02-04T06:52:18.819Z,6.70
2023-02-04T06:54:46.986Z,6.70
2023-02-04T06:57:15.436Z,6.60
2023-02-04T06:59:44.020Z,7.20
2023-02-04T07:02:13.293Z,6.70
2023-02-04T07:04:42.081Z,6.60
2023-02-04T07:07:12.357Z,6.70
2023-02-04T07:09:40.714Z,6.80
2023-02-04T07:12:09.340Z,6.80
2023-02-04T07:14:37.530Z,6.70
2023-02-04T07:17:05.752Z,6.60
2023-02-04T07:19:35.266Z,7.70
2023-02-04T07:22:04.609Z,6.60
2023-02-04T07:24:34.149Z,6.70
2023-02-04T07:27:02.737Z,6.70
2023-02-04T07:29:31.058Z,6.60
2023-02-04T07:31:59.782Z,6.70
2023-02-04T07:34:28.040Z,6.70
2023-02-04T07:36:56.905Z,6.70
2023-02-04T07:39:25.129Z,6.50
2023-02-04T07:41:55.303Z,6.60
2023-02-04T07:44:27.260Z,6.50
2023-02-04T07:46:55.400Z,6.50
2023-02-04T07:49:24.152Z,6.40
2023-02-04T07:51:52.242Z,6.50
2023-02-04T07:54:20.722Z,6.50
2023-02-04T07:56:48.883Z,6.60
2023-02-04T07:59:18.947Z,6.70
2023-02-04T08:01:48.146Z,6.80
2023-02-04T08:04:16.340Z,6.90
2023-02-04T08:06:44.565Z,7.00
2023-02-04T08:09:12.751Z,7.10
2023-02-04T08:11:41.316Z,7.10
2023-02-04T08:14:09.445Z,7.20
2023-02-04T08:16:39.820Z,7.20
2023-02-04T08:19:08.008Z,7.20
2023-02-04T08:21:36.750Z,7.30
2023-02-04T08:24:05.574Z,7.50
2023-02-04T08:26:34.125Z,7.30
2023-02-04T08:29:02.357Z,7.40
2023-02-04T08:31:31.245Z,7.50
2023-02-04T08:34:01.266Z,7.40
2023-02-04T08:36:29.482Z,7.40
2023-02-04T08:38:57.669Z,7.40
2023-02-04T08:41:26.080Z,7.40
2023-02-04T08:43:54.235Z,7.40
2023-02-04T08:46:22.533Z,7.40
2023-02-04T08:48:51.288Z,7.50
2023-02-04T08:51:20.840Z,7.60
2023-02-04T08:53:49.223Z,7.60
2023-02-04T08:56:20.404Z,7.70
2023-02-04T08:58:49.065Z,7.80
2023-02-04T09:01:17.404Z,7.90
2023-02-04T09:03:46.383Z,8.30
2023-02-04T09:06:14.792Z,8.00
2023-02-04T09:08:44.699Z,8.10
2023-02-04T09:11:13.008Z,8.10
2023-02-04T09:13:41.230Z,8.10
2023-02-04T09:16:10.841Z,8.10
2023-02-04T09:18:39.099Z,8.00
2023-02-04T09:21:07.788Z,8.00
2023-02-04T09:23:35.943Z,8.10
2023-02-04T09:26:06.851Z,7.90
2023-02-04T09:28:35.408Z,8.00
2023-02-04T09:31:04.616Z,7.80
2023-02-04T09:33:34.185Z,7.80
2023-02-04T09:36:02.394Z,7.80
2023-02-04T09:38:31.044Z,7.90
2023-02-04T09:41:03.973Z,7.90
2023-02-04T09:43:42.218Z,7.80
2023-02-04T09:46:21.656Z,7.90
2023-02-04T09:48:51.244Z,8.10
2023-02-04T09:51:24.685Z,8.20
2023-02-04T09:53:55.302Z,8.30
2023-02-04T09:56:23.940Z,8.50
2023-02-04T09:58:53.797Z,8.50
2023-02-04T10:01:22.586Z,8.70
2023-02-04T10:03:51.694Z,9.00
2023-02-04T10:06:23.099Z,9.50
2023-02-04T10:08:53.178Z,9.40
2023-02-04T10:11:24.776Z,10.00
2023-02-04T10:13:56.425Z,10.30
2023-02-04T10:16:30.750Z,10.10
2023-02-04T10:19:00.596Z,9.90
2023-02-04T10:21:32.207Z,9.80
2023-02-04T10:24:03.680Z,9.70
2023-02-04T10:26:33.454Z,9.80
2023-02-04T10:29:07.833Z,9.80
2023-02-04T10:31:39.673Z,9.70
2023-02-04T10:34:15.132Z,9.50
2023-02-04T10:36:47.072Z,9.30
2023-02-04T10:39:18.819Z,9.20
2023-02-04T10:41:50.847Z,9.10
2023-02-04T10:44:26.594Z,8.90
2023-02-04T10:47:01.152Z,8.90
2023-02-04T10:49:29.812Z,8.90
2023-02-04T10:51:58.558Z,8.90
2023-02-04T10:54:35.798Z,8.90
2023-02-04T10:57:18.916Z,8.80
2023-02-04T10:59:52.330Z,8.80
2023-02-04T11:02:42.923Z,9.00
2023-02-04T11:05:19.188Z,9.10
2023-02-04T11:07:49.841Z,9.00
2023-02-04T11:10:22.535Z,9.00
2023-02-04T11:13:04.963Z,9.20
2023-02-04T11:16:08.896Z,9.20
2023-02-04T11:18:49.601Z,9.20
2023-02-04T11:21:28.822Z,10.00
2023-02-04T11:24:24.449Z,9.90
2023-02-04T11:27:05.724Z,10.70
2023-02-04T11:29:38.654Z,11.50
2023-02-04T11:32:29.399Z,12.30
2023-02-04T11:35:22.663Z,13.00
2023-02-04T11:37:51.868Z,13.70
2023-02-04T11:40:28.880Z,14.10
2023-02-04T11:43:05.330Z,14.60
2023-02-04T11:45:36.133Z,15.10
2023-02-04T11:48:15.678Z,15.30
2023-02-04T11:50:45.227Z,15.30
2023-02-04T11:53:14.726Z,15.10
2023-02-04T11:55:48.546Z,14.70
2023-02-04T11:58:19.872Z,13.90
2023-02-04T12:00:48.884Z,14.00
2023-02-04T12:03:27.410Z,14.20
2023-02-04T12:05:56.949Z,13.90
2023-02-04T12:08:33.307Z,13.80
2023-02-04T12:11:11.274Z,13.50
2023-02-04T12:13:50.696Z,13.30
2023-02-04T12:16:19.046Z,13.40
2023-02-04T12:18:48.972Z,14.60
2023-02-04T12:21:19.240Z,15.90
2023-02-04T12:23:47.356Z,16.00
2023-02-04T12:26:16.127Z,15.80
2023-02-04T12:28:44.311Z,15.00
2023-02-04T12:31:12.543Z,14.10
2023-02-04T12:33:41.013Z,13.20
2023-02-04T12:36:11.688Z,12.70
2023-02-04T12:38:40.617Z,12.50
2023-02-04T12:41:09.536Z,12.20
2023-02-04T12:43:37.761Z,12.50
2023-02-04T12:46:06.320Z,12.60
2023-02-04T12:48:35.056Z,12.50
2023-02-04T12:51:03.466Z,12.40
2023-02-04T12:53:33.395Z,12.70
2023-02-04T12:56:01.572Z,13.60
2023-02-04T12:58:29.796Z,12.90
2023-02-04T13:00:58.079Z,12.70
2023-02-04T13:03:26.593Z,12.30
2023-02-04T13:05:56.405Z,12.20
2023-02-04T13:08:24.883Z,12.00
2023-02-04T13:10:55.888Z,12.00
2023-02-04T13:13:24.178Z,12.00
2023-02-04T13:15:52.435Z,11.70
2023-02-04T13:18:20.911Z,11.70
2023-02-04T13:20:49.135Z,11.60
2023-02-04T13:23:17.544Z,11.70
2023-02-04T13:25:46.317Z,11.60
2023-02-04T13:28:16.059Z,11.60
2023-02-04T13:30:45.139Z,11.90
2023-02-04T13:33:13.869Z,12.00
2023-02-04T13:35:42.557Z,12.10
2023-02-04T13:38:10.736Z,12.10
2023-02-04T13:40:39.348Z,12.10
2023-02-04T13:43:08.000Z,12.20
2023-02-04T13:45:37.680Z,12.00
2023-02-04T13:48:05.938Z,12.00
2023-02-04T13:50:34.641Z,11.90
2023-02-04T13:53:03.124Z,11.80
2023-02-04T13:55:32.463Z,11.50
2023-02-04T13:58:01.605Z,11.10
2023-02-04T14:00:30.165Z,11.30
2023-02-04T14:03:00.374Z,10.60
2023-02-04T14:05:28.567Z,10.40
2023-02-04T14:07:57.581Z,10.10
2023-02-04T14:10:26.867Z,10.50
2023-02-04T14:12:55.977Z,9.90
2023-02-04T14:15:24.118Z,9.90
2023-02-04T14:17:52.687Z,9.90
2023-02-04T14:20:23.413Z,10.00
2023-02-04T14:22:52.243Z,10.70
2023-02-04T14:25:20.414Z,10.00
2023-02-04T14:27:49.150Z,9.90
2023-02-04T14:30:23.065Z,9.70
2023-02-04T14:32:51.553Z,9.80
2023-02-04T14:35:22.471Z,9.90
2023-02-04T14:37:51.097Z,10.00
2023-02-04T14:40:21.670Z,10.10
2023-02-04T14:42:49.837Z,10.10
2023-02-04T14:45:18.706Z,10.10
2023-02-04T14:47:47.521Z,9.90
2023-02-04T14:50:17.998Z,9.80
2023-02-04T14:52:48.383Z,9.70
2023-02-04T14:55:16.849Z,9.50
2023-02-04T14:57:45.301Z,9.60
2023-02-04T15:00:15.753Z,9.50
2023-02-04T15:02:44.350Z,9.30
2023-02-04T15:05:13.913Z,9.60
2023-02-04T15:07:43.634Z,9.30
2023-02-04T15:10:15.366Z,9.30
2023-02-04T15:12:44.145Z,9.30
2023-02-04T15:15:12.760Z,9.40
2023-02-04T15:17:41.564Z,9.30
2023-02-04T15:20:11.325Z,9.30
2023-02-04T15:22:39.818Z,9.20
2023-02-04T15:25:08.620Z,9.30
2023-02-04T15:27:38.139Z,9.20
2023-02-04T15:30:06.943Z,9.10
2023-02-04T15:32:35.388Z,9.10
2023-02-04T15:35:03.495Z,9.00
2023-02-04T15:37:32.604Z,9.00
2023-02-04T15:40:00.895Z,8.90
2023-02-04T15:42:29.438Z,8.90
2023-02-04T15:44:58.996Z,8.80
2023-02-04T15:47:27.722Z,9.40
2023-02-04T15:49:55.842Z,8.70
2023-02-04T15:52:25.804Z,8.60
2023-02-04T15:54:54.573Z,8.50
2023-02-04T15:57:23.641Z,8.50
2023-02-04T15:59:51.879Z,8.80
2023-02-04T16:02:22.340Z,8.30
2023-02-04T16:04:50.928Z,8.20
2023-02-04T16:07:19.127Z,8.20
2023-02-04T16:09:47.972Z,8.10
2023-02-04T16:12:16.198Z,8.10
2023-02-04T16:14:44.345Z,8.00
2023-02-04T16:17:12.545Z,8.00
2023-02-04T16:19:42.422Z,8.60
2023-02-04T16:22:10.886Z,7.80
2023-02-04T16:24:39.242Z,7.70
2023-02-04T16:27:07.990Z,7.50
2023-02-04T16:29:36.658Z,7.40
2023-02-04T16:32:04.910Z,7.30
2023-02-04T16:34:33.108Z,7.10
2023-02-04T16:37:02.700Z,7.00
2023-02-04T16:39:30.922Z,7.00
2023-02-04T16:42:01.349Z,6.90
2023-02-04T16:44:30.497Z,6.80
2023-02-04T16:46:58.893Z,6.70
2023-02-04T16:49:27.694Z,6.60
2023-02-04T16:51:55.935Z,6.50
2023-02-04T16:54:25.391Z,6.50
2023-02-04T16:56:55.767Z,6.40
2023-02-04T16:59:24.854Z,6.30
2023-02-04T17:01:53.240Z,6.30
2023-02-04T17:04:21.358Z,6.20
2023-02-04T17:06:49.509Z,6.10
2023-02-04T17:09:18.295Z,6.00
2023-02-04T17:11:47.978Z,5.90
2023-02-04T17:14:17.013Z,5.80
2023-02-04T17:16:46.929Z,5.80
2023-02-04T17:19:17.981Z,5.80
2023-02-04T17:21:47.854Z,5.60
2023-02-04T17:24:16.040Z,5.60
2023-02-04T17:26:45.132Z,5.30
2023-02-04T17:29:18.314Z,5.10
2023-02-04T17:31:46.683Z,5.00
2023-02-04T17:34:15.582Z,5.00
2023-02-04T17:36:43.747Z,5.00
2023-02-04T17:39:11.841Z,4.80
2023-02-04T17:41:40.670Z,4.80
2023-02-04T17:44:09.109Z,4.80
2023-02-04T17:46:38.749Z,4.70
2023-02-04T17:49:06.943Z,4.60
2023-02-04T17:51:35.653Z,4.60
2023-02-04T17:54:04.043Z,4.60
2023-02-04T17:56:32.809Z,4.60
2023-02-04T17:59:01.933Z,4.60
2023-02-04T18:01:30.181Z,4.60
2023-02-04T18:04:00.928Z,4.50
2023-02-04T18:06:29.492Z,4.50
2023-02-04T18:09:02.508Z,4.50
2023-02-04T18:11:39.126Z,4.50
2023-02-04T18:14:17.533Z,4.50
2023-02-04T18:16:46.461Z,4.40
2023-02-04T18:19:22.298Z,4.40
2023-02-04T18:21:51.739Z,4.20
2023-02-04T18:24:27.280Z,4.10
2023-02-04T18:26:57.933Z,4.20
2023-02-04T18:29:35.543Z,4.20
2023-02-04T18:32:11.648Z,4.10
2023-02-04T18:34:45.641Z,4.10
2023-02-04T18:37:34.518Z,4.00
2023-02-04T18:40:27.341Z,4.10
2023-02-04T18:43:06.934Z,4.20
2023-02-04T18:45:37.152Z,4.20
2023-02-04T18:48:59.651Z,4.20
2023-02-04T18:51:33.613Z,4.30
2023-02-04T18:54:25.946Z,4.30
2023-02-04T18:56:56.470Z,4.40
2023-02-04T18:59:30.385Z,4.30
2023-02-04T19:01:58.759Z,4.30
2023-02-04T19:04:27.475Z,4.20
2023-02-04T19:06:59.548Z,4.20
2023-02-04T19:09:30.756Z,4.10
2023-02-04T19:12:01.738Z,4.10
2023-02-04T19:14:40.473Z,4.00
2023-02-04T19:17:26.655Z,4.00
2023-02-04T19:20:00.611Z,4.10
2023-02-04T19:22:46.466Z,4.20
2023-02-04T19:25:30.835Z,4.20
2023-02-04T19:28:03.137Z,4.10
2023-02-04T19:30:47.684Z,4.00
2023-02-04T19:33:23.266Z,3.90
2023-02-04T19:35:51.541Z,3.80
2023-02-04T19:38:46.802Z,3.80
2023-02-04T19:41:30.216Z,3.60
2023-02-04T19:44:34.342Z,3.70
2023-02-04T19:47:29.145Z,3.70
2023-02-04T19:50:16.777Z,3.70
2023-02-04T19:52:48.924Z,3.80
2023-02-04T19:55:36.579Z,3.90
2023-02-04T19:58:18.633Z,3.90
2023-02-04T20:01:03.068Z,4.00
2023-02-04T20:03:38.340Z,4.00
2023-02-04T20:06:29.811Z,3.90
2023-02-04T20:09:02.774Z,4.00
2023-02-04T20:11:56.569Z,4.00
2023-02-04T20:14:41.401Z,4.00
2023-02-04T20:17:39.906Z,4.00
2023-02-04T20:20:24.169Z,4.00
2023-02-04T20:22:57.113Z,4.00
2023-02-04T20:25:45.654Z,4.00
2023-02-04T20:28:39.886Z,4.10
2023-02-04T20:31:26.893Z,4.10
2023-02-04T20:33:59.230Z,4.00
2023-02-04T20:36:43.150Z,4.10
2023-02-04T20:39:43.950Z,4.20
2023-02-04T20:42:35.249Z,4.30
2023-02-04T20:45:30.455Z,4.30
2023-02-04T20:48:03.405Z,4.40
2023-02-04T20:50:44.379Z,4.50
2023-02-04T20:53:38.429Z,4.60
2023-02-04T20:56:25.464Z,4.60
2023-02-04T20:58:57.038Z,4.60
2023-02-04T21:01:35.417Z,4.50
2023-02-04T21:04:20.066Z,4.50
2023-02-04T21:06:49.294Z,4.50
2023-02-04T21:09:24.720Z,4.50
2023-02-04T21:11:54.152Z,4.50
2023-02-04T21:14:24.096Z,4.50
2023-02-04T21:16:54.902Z,4.50
2023-02-04T21:19:26.311Z,4.50
2023-02-04T21:21:55.824Z,4.60
2023-02-04T21:24:24.808Z,4.60
2023-02-04T21:26:53.712Z,4.60
2023-02-04T21:29:21.962Z,4.70
2023-02-04T21:31:51.179Z,4.60
2023-02-04T21:34:21.149Z,4.70
2023-02-04T21:36:49.702Z,4.70
2023-02-04T21:39:17.997Z,4.70
2023-02-04T21:41:46.703Z,4.70
2023-02-04T21:44:14.858Z,4.70
2023-02-04T21:46:43.455Z,4.70
2023-02-04T21:49:11.919Z,4.70
2023-02-04T21:51:41.250Z,4.80
2023-02-04T21:54:09.998Z,4.80
2023-02-04T21:56:40.020Z,4.70
2023-02-04T21:59:08.171Z,4.80
2023-02-04T22:01:36.741Z,4.80
2023-02-04T22:04:05.305Z,4.90
2023-02-04T22:06:33.418Z,4.90
2023-02-04T22:09:03.660Z,4.90
2023-02-04T22:11:32.158Z,4.90
2023-02-04T22:14:06.900Z,4.90
2023-02-04T22:16:35.413Z,4.80
2023-02-04T22:19:03.657Z,4.80
2023-02-04T22:21:35.859Z,4.80
2023-02-04T22:24:06.509Z,4.80
2023-02-04T22:26:35.071Z,4.80
2023-02-04T22:29:03.770Z,4.80
2023-02-04T22:31:32.537Z,4.90
2023-02-04T22:34:01.253Z,5.00
2023-02-04T22:36:29.740Z,5.10
2023-02-04T22:38:57.944Z,5.10
2023-02-04T22:41:27.488Z,5.10
2023-02-04T22:43:55.607Z,5.10
2023-02-04T22:46:24.093Z,5.10
2023-02-04T22:48:52.288Z,5.10
2023-02-04T22:51:20.435Z,5.00
2023-02-04T22:53:49.084Z,5.00
2023-02-04T22:56:17.469Z,5.00
2023-02-04T22:58:47.109Z,5.00
2023-02-04T23:01:15.537Z,5.00
2023-02-04T23:03:43.740Z,4.90
2023-02-04T23:06:12.702Z,4.90
2023-02-04T23:08:40.842Z,5.00
2023-02-04T23:11:11.757Z,5.00
2023-02-04T23:13:41.944Z,5.00
2023-02-04T23:16:12.793Z,5.10
2023-02-04T23:18:40.991Z,5.10
2023-02-04T23:21:10.165Z,5.20
2023-02-04T23:23:38.959Z,5.10
2023-02-04T23:26:07.622Z,5.10
2023-02-04T23:28:36.281Z,5.10
2023-02-04T23:31:04.441Z,5.20
2023-02-04T23:33:34.240Z,5.20
2023-02-04T23:36:02.766Z,5.20
2023-02-04T23:38:31.640Z,5.20
2023-02-04T23:41:00.267Z,5.10
2023-02-04T23:43:29.040Z,5.00
2023-02-04T23:45:59.985Z,5.00
2023-02-04T23:48:28.161Z,4.90
2023-02-04T23:50:58.125Z,4.90
2023-02-04T23:53:26.880Z,4.70
2023-02-04T23:55:54.933Z,4.60
2023-02-04T23:58:23.464Z,4.50
